Miraero Ace — 3FIH4 — position and weather

sailwx.info

Track history (hours):
 
Tides and Currents Weather Stations Pressure Air Temp Water Temp Dewpoint Dewpoint Depression Visibility Wind Speed Wind Dir Waves Ship Positions

Miraero Ace

Last reported at 2014-Jul-24 23:03 UTC. Time now 2014-Jul-31 23:51 UTC.
Position N 34°17' W 024°47'.

Length 229 m; draft 7.4 m.

Type: Cargo ship. MMSI: 373216000.

Date/timePositionNaut miles runAvg speedWind from/ knotsBaromVisibWave heightAir tempDewpointWater temp
2014-Jul-24 23:03N 34°17' W 024°47'13612.9
2014-Jul-24 12:31N 35°25' W 022°24'1212.6
2014-Jul-24 11:32N 35°31' W 022°10'1412.9
2014-Jul-24 10:26N 35°38' W 021°55'2612.8
2014-Jul-24 08:22N 35°52' W 021°27'46712.9
2014-Jul-22 20:05N 40°52' W 013°52'713.0
2014-Jul-22 19:34N 40°57' W 013°45'5313.1
2014-Jul-22 15:29N 41°34' W 012°54'  
2014-Jul-16 16:09N 50°15' W 001°28'814.3
2014-Jul-16 15:33N 50°18' W 001°16'1312.9
2014-Jul-16 14:33N 50°21' W 000°56'1110.4
2014-Jul-16 13:31N 50°24' W 000°40'9 9.1
2014-Jul-16 12:33N 50°26' W 000°27'8 8.5
2014-Jul-16 11:33N 50°29' W 000°14'9 8.6
2014-Jul-16 10:32N 50°31' W 000°00'9 9.5
2014-Jul-16 09:33N 50°33' E 000°14'1111.1
2014-Jul-16 08:33N 50°36' E 000°31'1212.1
2014-Jul-16 07:33N 50°42' E 000°47'1212.1
2014-Jul-16 06:33N 50°48' E 001°04'1111.1
2014-Jul-16 05:33N 50°55' E 001°18'10 9.8
2014-Jul-16 04:33N 51°02' E 001°28'7 7.5
2014-Jul-16 03:33N 51°07' E 001°37'7 7.3
2014-Jul-16 02:34N 51°13' E 001°44'8 8.5
2014-Jul-16 01:33N 51°20' E 001°51'1110.7
2014-Jul-16 00:33N 51°30' E 001°59'1212.3
2014-Jul-15 23:33N 51°39' E 002°12'1313.2
2014-Jul-15 22:33N 51°49' E 002°27'1212.5
2014-Jul-15 21:33N 51°58' E 002°40'1511.9
2014-Jul-15 20:15N 52°10' E 002°57'710.3
2014-Jul-15 19:33N 52°16' E 003°01'10 9.7
2014-Jul-15 18:33N 52°26' E 003°05'9 9.4
2014-Jul-15 17:33N 52°35' E 003°08'9 9.2
2014-Jul-15 16:33N 52°44' E 003°11'9 9.3
2014-Jul-15 15:33N 52°53' E 003°14'1010.3
2014-Jul-15 14:33N 53°03' E 003°19'1411.3
2014-Jul-15 13:21N 53°16' E 003°26'1211.5
2014-Jul-15 12:20N 53°27' E 003°32'  
Track history (hours):
 
Tides and Currents Weather Stations Pressure Air Temp Water Temp Dewpoint Dewpoint Depression Visibility Wind Speed Wind Dir Waves Ship Positions

Miraero Ace

Last reported at 2014-Jul-24 23:03 UTC. Time now 2014-Jul-31 23:51 UTC.
Position N 34°17' W 024°47'.

Length 229 m; draft 7.4 m.

Type: Cargo ship. MMSI: 373216000.

Date/timePositionNaut miles runAvg speedWind from/ knotsBaromVisibWave heightAir tempDewpointWater temp
2014-Jul-24 23:03N 34°17' W 024°47'13612.9
2014-Jul-24 12:31N 35°25' W 022°24'1212.6
2014-Jul-24 11:32N 35°31' W 022°10'1412.9
2014-Jul-24 10:26N 35°38' W 021°55'2612.8
2014-Jul-24 08:22N 35°52' W 021°27'46712.9
2014-Jul-22 20:05N 40°52' W 013°52'713.0
2014-Jul-22 19:34N 40°57' W 013°45'5313.1
2014-Jul-22 15:29N 41°34' W 012°54'  
2014-Jul-16 16:09N 50°15' W 001°28'814.3
2014-Jul-16 15:33N 50°18' W 001°16'1312.9
2014-Jul-16 14:33N 50°21' W 000°56'1110.4
2014-Jul-16 13:31N 50°24' W 000°40'9 9.1
2014-Jul-16 12:33N 50°26' W 000°27'8 8.5
2014-Jul-16 11:33N 50°29' W 000°14'9 8.6
2014-Jul-16 10:32N 50°31' W 000°00'9 9.5
2014-Jul-16 09:33N 50°33' E 000°14'1111.1
2014-Jul-16 08:33N 50°36' E 000°31'1212.1
2014-Jul-16 07:33N 50°42' E 000°47'1212.1
2014-Jul-16 06:33N 50°48' E 001°04'1111.1
2014-Jul-16 05:33N 50°55' E 001°18'10 9.8
2014-Jul-16 04:33N 51°02' E 001°28'7 7.5
2014-Jul-16 03:33N 51°07' E 001°37'7 7.3
2014-Jul-16 02:34N 51°13' E 001°44'8 8.5
2014-Jul-16 01:33N 51°20' E 001°51'1110.7
2014-Jul-16 00:33N 51°30' E 001°59'1212.3
2014-Jul-15 23:33N 51°39' E 002°12'1313.2
2014-Jul-15 22:33N 51°49' E 002°27'1212.5
2014-Jul-15 21:33N 51°58' E 002°40'1511.9
2014-Jul-15 20:15N 52°10' E 002°57'710.3
2014-Jul-15 19:33N 52°16' E 003°01'10 9.7
2014-Jul-15 18:33N 52°26' E 003°05'9 9.4
2014-Jul-15 17:33N 52°35' E 003°08'9 9.2
2014-Jul-15 16:33N 52°44' E 003°11'9 9.3
2014-Jul-15 15:33N 52°53' E 003°14'1010.3
2014-Jul-15 14:33N 53°03' E 003°19'1411.3
2014-Jul-15 13:21N 53°16' E 003°26'1211.5
2014-Jul-15 12:20N 53°27' E 003°32'  

Dump ship's entire track history